sensor_id;sensor_type;location;lat;lon;timestamp;P1;durP1;ratioP1;P2;durP2;ratioP2
55063;SDS011;40963;52.168;21.296;2023-02-25T00:02:10;44.83;;;17.70;;
55063;SDS011;40963;52.168;21.296;2023-02-25T00:04:36;29.30;;;12.82;;
55063;SDS011;40963;52.168;21.296;2023-02-25T00:07:01;32.67;;;12.68;;
55063;SDS011;40963;52.168;21.296;2023-02-25T00:09:28;32.30;;;12.65;;
55063;SDS011;40963;52.168;21.296;2023-02-25T00:11:54;30.20;;;11.98;;
55063;SDS011;40963;52.168;21.296;2023-02-25T00:14:20;24.80;;;11.18;;
55063;SDS011;40963;52.168;21.296;2023-02-25T00:16:47;29.20;;;12.25;;
55063;SDS011;40963;52.168;21.296;2023-02-25T00:19:14;32.30;;;13.23;;
55063;SDS011;40963;52.168;21.296;2023-02-25T00:21:39;26.33;;;12.00;;
55063;SDS011;40963;52.168;21.296;2023-02-25T00:24:05;29.73;;;11.93;;
55063;SDS011;40963;52.168;21.296;2023-02-25T00:26:31;29.83;;;12.18;;
55063;SDS011;40963;52.168;21.296;2023-02-25T00:28:57;31.02;;;12.27;;
55063;SDS011;40963;52.168;21.296;2023-02-25T00:31:23;28.30;;;12.40;;
55063;SDS011;40963;52.168;21.296;2023-02-25T00:33:49;27.40;;;12.23;;
55063;SDS011;40963;52.168;21.296;2023-02-25T00:36:20;29.02;;;12.90;;
55063;SDS011;40963;52.168;21.296;2023-02-25T00:38:51;35.35;;;13.13;;
55063;SDS011;40963;52.168;21.296;2023-02-25T00:41:19;37.40;;;13.18;;
55063;SDS011;40963;52.168;21.296;2023-02-25T00:43:50;33.42;;;13.00;;
55063;SDS011;40963;52.168;21.296;2023-02-25T00:46:17;27.40;;;12.70;;
55063;SDS011;40963;52.168;21.296;2023-02-25T00:48:44;30.33;;;13.57;;
55063;SDS011;40963;52.168;21.296;2023-02-25T00:51:11;30.30;;;12.80;;
55063;SDS011;40963;52.168;21.296;2023-02-25T00:53:41;27.45;;;12.77;;
55063;SDS011;40963;52.168;21.296;2023-02-25T00:56:08;28.35;;;12.75;;
55063;SDS011;40963;52.168;21.296;2023-02-25T00:58:38;27.65;;;12.40;;
55063;SDS011;40963;52.168;21.296;2023-02-25T01:01:05;28.88;;;13.30;;
55063;SDS011;40963;52.168;21.296;2023-02-25T01:03:41;33.15;;;12.90;;
55063;SDS011;40963;52.168;21.296;2023-02-25T01:06:07;30.17;;;13.38;;
55063;SDS011;40963;52.168;21.296;2023-02-25T01:08:33;32.00;;;12.10;;
55063;SDS011;40963;52.168;21.296;2023-02-25T01:10:59;32.15;;;13.75;;
55063;SDS011;40963;52.168;21.296;2023-02-25T01:13:25;33.65;;;13.07;;
55063;SDS011;40963;52.168;21.296;2023-02-25T01:15:50;31.67;;;13.05;;
55063;SDS011;40963;52.168;21.296;2023-02-25T01:18:16;30.45;;;12.45;;
55063;SDS011;40963;52.168;21.296;2023-02-25T01:20:44;34.83;;;12.27;;
55063;SDS011;40963;52.168;21.296;2023-02-25T01:23:10;29.75;;;12.43;;
55063;SDS011;40963;52.168;21.296;2023-02-25T01:25:38;26.27;;;12.73;;
55063;SDS011;40963;52.168;21.296;2023-02-25T01:28:04;31.70;;;12.82;;
55063;SDS011;40963;52.168;21.296;2023-02-25T01:30:31;32.47;;;12.98;;
55063;SDS011;40963;52.168;21.296;2023-02-25T01:32:56;35.88;;;14.13;;
55063;SDS011;40963;52.168;21.296;2023-02-25T01:35:22;28.80;;;12.85;;
55063;SDS011;40963;52.168;21.296;2023-02-25T01:37:48;30.38;;;13.13;;
55063;SDS011;40963;52.168;21.296;2023-02-25T01:40:14;31.48;;;13.77;;
55063;SDS011;40963;52.168;21.296;2023-02-25T01:42:42;37.28;;;13.73;;
55063;SDS011;40963;52.168;21.296;2023-02-25T01:47:51;39.15;;;14.48;;
55063;SDS011;40963;52.168;21.296;2023-02-25T01:50:26;32.85;;;13.18;;
55063;SDS011;40963;52.168;21.296;2023-02-25T01:52:57;32.13;;;12.73;;
55063;SDS011;40963;52.168;21.296;2023-02-25T01:55:25;24.30;;;10.00;;
55063;SDS011;40963;52.168;21.296;2023-02-25T01:57:51;26.35;;;10.88;;
55063;SDS011;40963;52.168;21.296;2023-02-25T02:00:17;25.20;;;12.35;;
55063;SDS011;40963;52.168;21.296;2023-02-25T02:02:44;23.05;;;10.20;;
55063;SDS011;40963;52.168;21.296;2023-02-25T02:05:13;33.92;;;11.30;;
55063;SDS011;40963;52.168;21.296;2023-02-25T02:07:39;26.88;;;10.50;;
55063;SDS011;40963;52.168;21.296;2023-02-25T02:10:05;26.42;;;9.95;;
55063;SDS011;40963;52.168;21.296;2023-02-25T02:12:32;17.70;;;9.32;;
55063;SDS011;40963;52.168;21.296;2023-02-25T02:15:02;24.27;;;10.05;;
55063;SDS011;40963;52.168;21.296;2023-02-25T02:17:40;18.30;;;8.52;;
55063;SDS011;40963;52.168;21.296;2023-02-25T02:23:24;23.27;;;9.00;;
55063;SDS011;40963;52.168;21.296;2023-02-25T02:34:28;23.75;;;8.77;;
55063;SDS011;40963;52.168;21.296;2023-02-25T02:37:11;23.15;;;8.85;;
55063;SDS011;40963;52.168;21.296;2023-02-25T02:42:43;25.67;;;9.30;;
55063;SDS011;40963;52.168;21.296;2023-02-25T02:48:16;24.25;;;9.05;;
55063;SDS011;40963;52.168;21.296;2023-02-25T02:50:51;21.80;;;9.38;;
55063;SDS011;40963;52.168;21.296;2023-02-25T02:53:31;19.00;;;8.55;;
55063;SDS011;40963;52.168;21.296;2023-02-25T02:56:03;18.25;;;8.80;;
55063;SDS011;40963;52.168;21.296;2023-02-25T02:58:33;24.00;;;8.80;;
55063;SDS011;40963;52.168;21.296;2023-02-25T03:01:20;21.73;;;8.68;;
55063;SDS011;40963;52.168;21.296;2023-02-25T03:03:52;18.60;;;8.88;;
55063;SDS011;40963;52.168;21.296;2023-02-25T03:06:29;20.10;;;8.82;;
55063;SDS011;40963;52.168;21.296;2023-02-25T03:09:03;20.67;;;9.02;;
55063;SDS011;40963;52.168;21.296;2023-02-25T03:11:31;22.70;;;9.57;;
55063;SDS011;40963;52.168;21.296;2023-02-25T03:13:57;26.30;;;8.43;;
55063;SDS011;40963;52.168;21.296;2023-02-25T03:16:28;19.23;;;8.48;;
55063;SDS011;40963;52.168;21.296;2023-02-25T03:19:19;19.80;;;8.30;;
55063;SDS011;40963;52.168;21.296;2023-02-25T03:21:53;19.13;;;8.65;;
55063;SDS011;40963;52.168;21.296;2023-02-25T03:24:25;16.90;;;7.68;;
55063;SDS011;40963;52.168;21.296;2023-02-25T03:26:58;18.25;;;8.85;;
55063;SDS011;40963;52.168;21.296;2023-02-25T03:29:25;16.40;;;7.70;;
55063;SDS011;40963;52.168;21.296;2023-02-25T03:31:53;17.25;;;8.35;;
55063;SDS011;40963;52.168;21.296;2023-02-25T03:34:37;26.80;;;8.48;;
55063;SDS011;40963;52.168;21.296;2023-02-25T03:37:12;20.58;;;8.63;;
55063;SDS011;40963;52.168;21.296;2023-02-25T03:39:49;16.05;;;7.93;;
55063;SDS011;40963;52.168;21.296;2023-02-25T03:42:22;22.88;;;8.57;;
55063;SDS011;40963;52.168;21.296;2023-02-25T03:44:53;20.42;;;8.90;;
55063;SDS011;40963;52.168;21.296;2023-02-25T03:47:23;25.20;;;8.45;;
55063;SDS011;40963;52.168;21.296;2023-02-25T03:52:38;17.33;;;7.55;;
55063;SDS011;40963;52.168;21.296;2023-02-25T03:55:05;20.30;;;8.65;;
55063;SDS011;40963;52.168;21.296;2023-02-25T03:57:35;20.25;;;8.10;;
55063;SDS011;40963;52.168;21.296;2023-02-25T04:00:03;18.17;;;8.30;;
55063;SDS011;40963;52.168;21.296;2023-02-25T04:02:41;19.10;;;8.13;;
55063;SDS011;40963;52.168;21.296;2023-02-25T04:05:08;15.48;;;6.93;;
55063;SDS011;40963;52.168;21.296;2023-02-25T04:07:37;17.98;;;8.32;;
55063;SDS011;40963;52.168;21.296;2023-02-25T04:10:04;20.45;;;8.88;;
55063;SDS011;40963;52.168;21.296;2023-02-25T04:12:30;16.02;;;7.20;;
55063;SDS011;40963;52.168;21.296;2023-02-25T04:14:56;17.05;;;7.70;;
55063;SDS011;40963;52.168;21.296;2023-02-25T04:17:22;15.00;;;7.00;;
55063;SDS011;40963;52.168;21.296;2023-02-25T04:19:48;10.18;;;4.75;;
55063;SDS011;40963;52.168;21.296;2023-02-25T04:22:13;18.45;;;7.30;;
55063;SDS011;40963;52.168;21.296;2023-02-25T04:24:39;18.95;;;7.60;;
55063;SDS011;40963;52.168;21.296;2023-02-25T04:27:05;15.02;;;7.00;;
55063;SDS011;40963;52.168;21.296;2023-02-25T04:29:30;7.13;;;3.60;;
55063;SDS011;40963;52.168;21.296;2023-02-25T04:31:56;12.80;;;6.15;;
55063;SDS011;40963;52.168;21.296;2023-02-25T04:34:22;14.35;;;6.05;;
55063;SDS011;40963;52.168;21.296;2023-02-25T04:36:49;3.55;;;2.13;;
55063;SDS011;40963;52.168;21.296;2023-02-25T04:39:15;12.18;;;5.50;;
55063;SDS011;40963;52.168;21.296;2023-02-25T04:41:42;13.50;;;6.25;;
55063;SDS011;40963;52.168;21.296;2023-02-25T04:44:08;4.90;;;3.42;;
55063;SDS011;40963;52.168;21.296;2023-02-25T04:46:38;6.18;;;3.85;;
55063;SDS011;40963;52.168;21.296;2023-02-25T04:49:05;11.90;;;6.55;;
55063;SDS011;40963;52.168;21.296;2023-02-25T04:51:31;15.95;;;4.63;;
55063;SDS011;40963;52.168;21.296;2023-02-25T04:53:57;11.25;;;5.82;;
55063;SDS011;40963;52.168;21.296;2023-02-25T04:56:23;10.38;;;5.72;;
55063;SDS011;40963;52.168;21.296;2023-02-25T04:58:49;9.98;;;5.22;;
55063;SDS011;40963;52.168;21.296;2023-02-25T05:01:15;5.95;;;3.85;;
55063;SDS011;40963;52.168;21.296;2023-02-25T05:03:40;11.93;;;5.97;;
55063;SDS011;40963;52.168;21.296;2023-02-25T05:06:07;12.25;;;5.97;;
55063;SDS011;40963;52.168;21.296;2023-02-25T05:08:33;16.38;;;7.00;;
55063;SDS011;40963;52.168;21.296;2023-02-25T05:11:00;10.93;;;5.28;;
55063;SDS011;40963;52.168;21.296;2023-02-25T05:13:26;10.93;;;5.57;;
55063;SDS011;40963;52.168;21.296;2023-02-25T05:16:01;13.30;;;6.35;;
55063;SDS011;40963;52.168;21.296;2023-02-25T05:18:28;12.60;;;6.10;;
55063;SDS011;40963;52.168;21.296;2023-02-25T05:20:54;11.38;;;5.20;;
55063;SDS011;40963;52.168;21.296;2023-02-25T05:23:19;12.10;;;6.00;;
55063;SDS011;40963;52.168;21.296;2023-02-25T05:25:45;9.40;;;5.55;;
55063;SDS011;40963;52.168;21.296;2023-02-25T05:28:11;14.98;;;6.28;;
55063;SDS011;40963;52.168;21.296;2023-02-25T05:30:37;15.38;;;6.55;;
55063;SDS011;40963;52.168;21.296;2023-02-25T05:33:03;12.55;;;6.45;;
55063;SDS011;40963;52.168;21.296;2023-02-25T05:35:30;14.85;;;6.88;;
55063;SDS011;40963;52.168;21.296;2023-02-25T05:37:59;13.07;;;6.68;;
55063;SDS011;40963;52.168;21.296;2023-02-25T05:40:25;14.50;;;7.07;;
55063;SDS011;40963;52.168;21.296;2023-02-25T05:42:51;14.95;;;6.88;;
55063;SDS011;40963;52.168;21.296;2023-02-25T05:45:17;13.07;;;6.97;;
55063;SDS011;40963;52.168;21.296;2023-02-25T05:47:43;16.90;;;7.40;;
55063;SDS011;40963;52.168;21.296;2023-02-25T05:50:09;12.73;;;6.30;;
55063;SDS011;40963;52.168;21.296;2023-02-25T05:52:35;14.10;;;7.97;;
55063;SDS011;40963;52.168;21.296;2023-02-25T05:55:01;19.05;;;7.50;;
55063;SDS011;40963;52.168;21.296;2023-02-25T05:57:27;13.50;;;6.88;;
55063;SDS011;40963;52.168;21.296;2023-02-25T05:59:53;12.68;;;7.22;;
55063;SDS011;40963;52.168;21.296;2023-02-25T06:02:19;12.93;;;6.65;;
55063;SDS011;40963;52.168;21.296;2023-02-25T06:04:44;16.63;;;7.70;;
55063;SDS011;40963;52.168;21.296;2023-02-25T06:07:12;11.45;;;5.68;;
55063;SDS011;40963;52.168;21.296;2023-02-25T06:09:38;9.10;;;5.15;;
55063;SDS011;40963;52.168;21.296;2023-02-25T06:12:04;16.65;;;8.27;;
55063;SDS011;40963;52.168;21.296;2023-02-25T06:14:30;14.48;;;6.97;;
55063;SDS011;40963;52.168;21.296;2023-02-25T06:16:55;12.05;;;6.95;;
55063;SDS011;40963;52.168;21.296;2023-02-25T06:19:22;12.98;;;7.13;;
55063;SDS011;40963;52.168;21.296;2023-02-25T06:21:50;10.43;;;6.13;;
55063;SDS011;40963;52.168;21.296;2023-02-25T06:24:20;12.55;;;7.63;;
55063;SDS011;40963;52.168;21.296;2023-02-25T06:26:46;10.60;;;5.55;;
55063;SDS011;40963;52.168;21.296;2023-02-25T06:29:12;13.80;;;5.82;;
55063;SDS011;40963;52.168;21.296;2023-02-25T06:31:38;13.43;;;7.03;;
55063;SDS011;40963;52.168;21.296;2023-02-25T06:34:03;11.60;;;6.45;;
55063;SDS011;40963;52.168;21.296;2023-02-25T06:36:31;12.43;;;6.82;;
55063;SDS011;40963;52.168;21.296;2023-02-25T06:38:57;8.93;;;5.20;;
55063;SDS011;40963;52.168;21.296;2023-02-25T06:41:23;11.57;;;6.72;;
55063;SDS011;40963;52.168;21.296;2023-02-25T06:43:50;13.52;;;6.32;;
55063;SDS011;40963;52.168;21.296;2023-02-25T06:46:17;12.32;;;6.15;;
55063;SDS011;40963;52.168;21.296;2023-02-25T06:48:44;14.00;;;6.93;;
55063;SDS011;40963;52.168;21.296;2023-02-25T06:51:10;5.90;;;3.45;;
55063;SDS011;40963;52.168;21.296;2023-02-25T06:53:40;16.40;;;8.10;;
55063;SDS011;40963;52.168;21.296;2023-02-25T06:56:07;13.45;;;6.55;;
55063;SDS011;40963;52.168;21.296;2023-02-25T06:58:34;16.58;;;7.88;;
55063;SDS011;40963;52.168;21.296;2023-02-25T07:01:03;9.57;;;5.28;;
55063;SDS011;40963;52.168;21.296;2023-02-25T07:03:32;11.93;;;6.90;;
55063;SDS011;40963;52.168;21.296;2023-02-25T07:05:58;13.80;;;7.75;;
55063;SDS011;40963;52.168;21.296;2023-02-25T07:08:24;12.73;;;7.35;;
55063;SDS011;40963;52.168;21.296;2023-02-25T07:10:49;10.70;;;6.20;;
55063;SDS011;40963;52.168;21.296;2023-02-25T07:13:15;18.92;;;8.35;;
55063;SDS011;40963;52.168;21.296;2023-02-25T07:15:41;15.15;;;7.40;;
55063;SDS011;40963;52.168;21.296;2023-02-25T07:18:07;12.27;;;6.38;;
55063;SDS011;40963;52.168;21.296;2023-02-25T07:20:33;10.48;;;6.00;;
55063;SDS011;40963;52.168;21.296;2023-02-25T07:23:01;14.27;;;6.22;;
55063;SDS011;40963;52.168;21.296;2023-02-25T07:25:28;18.08;;;8.10;;
55063;SDS011;40963;52.168;21.296;2023-02-25T07:27:54;11.95;;;6.05;;
55063;SDS011;40963;52.168;21.296;2023-02-25T07:30:19;19.52;;;8.13;;
55063;SDS011;40963;52.168;21.296;2023-02-25T07:32:45;19.00;;;8.60;;
55063;SDS011;40963;52.168;21.296;2023-02-25T07:35:11;14.40;;;6.60;;
55063;SDS011;40963;52.168;21.296;2023-02-25T07:37:37;18.67;;;8.88;;
55063;SDS011;40963;52.168;21.296;2023-02-25T07:40:06;21.65;;;8.95;;
55063;SDS011;40963;52.168;21.296;2023-02-25T07:42:37;13.18;;;6.38;;
55063;SDS011;40963;52.168;21.296;2023-02-25T07:45:06;16.55;;;6.93;;
55063;SDS011;40963;52.168;21.296;2023-02-25T07:47:33;18.70;;;8.13;;
55063;SDS011;40963;52.168;21.296;2023-02-25T07:49:58;25.10;;;8.60;;
55063;SDS011;40963;52.168;21.296;2023-02-25T07:52:24;21.13;;;8.77;;
55063;SDS011;40963;52.168;21.296;2023-02-25T07:54:50;20.23;;;7.38;;
55063;SDS011;40963;52.168;21.296;2023-02-25T07:57:15;20.00;;;9.27;;
55063;SDS011;40963;52.168;21.296;2023-02-25T07:59:41;14.00;;;7.15;;
55063;SDS011;40963;52.168;21.296;2023-02-25T08:02:07;24.05;;;10.23;;
55063;SDS011;40963;52.168;21.296;2023-02-25T08:04:35;19.95;;;9.00;;
55063;SDS011;40963;52.168;21.296;2023-02-25T08:07:01;17.67;;;8.73;;
55063;SDS011;40963;52.168;21.296;2023-02-25T08:09:27;25.95;;;11.02;;
55063;SDS011;40963;52.168;21.296;2023-02-25T08:11:52;20.25;;;10.05;;
55063;SDS011;40963;52.168;21.296;2023-02-25T08:14:18;20.25;;;9.90;;
55063;SDS011;40963;52.168;21.296;2023-02-25T08:16:45;21.65;;;9.68;;
55063;SDS011;40963;52.168;21.296;2023-02-25T08:19:12;19.35;;;9.23;;
55063;SDS011;40963;52.168;21.296;2023-02-25T08:21:38;19.98;;;9.68;;
55063;SDS011;40963;52.168;21.296;2023-02-25T08:24:05;19.85;;;8.80;;
55063;SDS011;40963;52.168;21.296;2023-02-25T08:26:32;23.42;;;10.60;;
55063;SDS011;40963;52.168;21.296;2023-02-25T08:28:57;21.55;;;8.80;;
55063;SDS011;40963;52.168;21.296;2023-02-25T08:31:24;22.00;;;10.48;;
55063;SDS011;40963;52.168;21.296;2023-02-25T08:33:50;8.93;;;5.35;;
55063;SDS011;40963;52.168;21.296;2023-02-25T08:36:20;23.63;;;10.00;;
55063;SDS011;40963;52.168;21.296;2023-02-25T08:38:49;24.33;;;11.57;;
55063;SDS011;40963;52.168;21.296;2023-02-25T08:41:16;21.33;;;9.63;;
55063;SDS011;40963;52.168;21.296;2023-02-25T08:43:42;20.23;;;9.40;;
55063;SDS011;40963;52.168;21.296;2023-02-25T08:46:08;19.77;;;9.43;;
55063;SDS011;40963;52.168;21.296;2023-02-25T08:48:34;20.98;;;10.20;;
55063;SDS011;40963;52.168;21.296;2023-02-25T08:51:07;19.10;;;10.18;;
55063;SDS011;40963;52.168;21.296;2023-02-25T08:53:38;22.13;;;10.48;;
55063;SDS011;40963;52.168;21.296;2023-02-25T08:56:08;19.80;;;10.15;;
55063;SDS011;40963;52.168;21.296;2023-02-25T08:58:36;22.02;;;10.35;;
55063;SDS011;40963;52.168;21.296;2023-02-25T09:01:05;22.02;;;11.13;;
55063;SDS011;40963;52.168;21.296;2023-02-25T09:03:39;25.65;;;10.68;;
55063;SDS011;40963;52.168;21.296;2023-02-25T09:06:05;21.85;;;11.02;;
55063;SDS011;40963;52.168;21.296;2023-02-25T09:08:30;21.55;;;10.00;;
55063;SDS011;40963;52.168;21.296;2023-02-25T09:10:56;19.75;;;10.10;;
55063;SDS011;40963;52.168;21.296;2023-02-25T09:13:22;20.35;;;10.60;;
55063;SDS011;40963;52.168;21.296;2023-02-25T09:15:54;18.40;;;9.95;;
55063;SDS011;40963;52.168;21.296;2023-02-25T09:18:21;16.40;;;7.50;;
55063;SDS011;40963;52.168;21.296;2023-02-25T09:20:50;16.63;;;8.63;;
55063;SDS011;40963;52.168;21.296;2023-02-25T09:23:16;11.10;;;6.03;;
55063;SDS011;40963;52.168;21.296;2023-02-25T09:25:42;13.43;;;7.80;;
55063;SDS011;40963;52.168;21.296;2023-02-25T09:28:10;15.27;;;8.93;;
55063;SDS011;40963;52.168;21.296;2023-02-25T09:30:36;17.63;;;9.40;;
55063;SDS011;40963;52.168;21.296;2023-02-25T09:33:02;6.18;;;3.42;;
55063;SDS011;40963;52.168;21.296;2023-02-25T09:35:28;15.40;;;7.85;;
55063;SDS011;40963;52.168;21.296;2023-02-25T09:37:54;13.15;;;8.50;;
55063;SDS011;40963;52.168;21.296;2023-02-25T09:40:19;13.07;;;7.75;;
55063;SDS011;40963;52.168;21.296;2023-02-25T09:42:51;16.63;;;8.48;;
55063;SDS011;40963;52.168;21.296;2023-02-25T09:45:20;3.60;;;2.08;;
55063;SDS011;40963;52.168;21.296;2023-02-25T09:47:53;15.88;;;8.73;;
55063;SDS011;40963;52.168;21.296;2023-02-25T09:55:53;23.23;;;8.57;;
55063;SDS011;40963;52.168;21.296;2023-02-25T09:58:23;12.95;;;7.00;;
55063;SDS011;40963;52.168;21.296;2023-02-25T10:00:53;18.25;;;9.20;;
55063;SDS011;40963;52.168;21.296;2023-02-25T10:06:01;17.88;;;7.85;;
55063;SDS011;40963;52.168;21.296;2023-02-25T10:14:35;11.63;;;6.57;;
55063;SDS011;40963;52.168;21.296;2023-02-25T10:17:25;15.02;;;7.40;;
55063;SDS011;40963;52.168;21.296;2023-02-25T10:26:01;10.95;;;5.55;;
55063;SDS011;40963;52.168;21.296;2023-02-25T10:28:42;12.15;;;6.95;;
55063;SDS011;40963;52.168;21.296;2023-02-25T10:31:14;13.63;;;6.25;;
55063;SDS011;40963;52.168;21.296;2023-02-25T10:33:43;8.10;;;2.90;;
55063;SDS011;40963;52.168;21.296;2023-02-25T10:36:18;6.97;;;4.63;;
55063;SDS011;40963;52.168;21.296;2023-02-25T10:38:56;10.85;;;5.80;;
55063;SDS011;40963;52.168;21.296;2023-02-25T10:41:22;7.93;;;4.50;;
55063;SDS011;40963;52.168;21.296;2023-02-25T10:43:52;7.90;;;4.53;;
55063;SDS011;40963;52.168;21.296;2023-02-25T10:49:19;1.85;;;1.75;;
55063;SDS011;40963;52.168;21.296;2023-02-25T10:52:04;2.70;;;2.25;;
55063;SDS011;40963;52.168;21.296;2023-02-25T10:54:44;5.82;;;3.55;;
55063;SDS011;40963;52.168;21.296;2023-02-25T10:57:15;5.38;;;2.55;;
55063;SDS011;40963;52.168;21.296;2023-02-25T10:59:59;5.57;;;2.58;;
55063;SDS011;40963;52.168;21.296;2023-02-25T11:02:28;2.03;;;1.75;;
55063;SDS011;40963;52.168;21.296;2023-02-25T11:04:55;8.52;;;3.42;;
55063;SDS011;40963;52.168;21.296;2023-02-25T11:12:51;4.47;;;2.40;;
55063;SDS011;40963;52.168;21.296;2023-02-25T11:17:54;5.85;;;2.58;;
55063;SDS011;40963;52.168;21.296;2023-02-25T11:20:27;7.53;;;2.83;;
55063;SDS011;40963;52.168;21.296;2023-02-25T11:22:56;2.97;;;2.40;;
55063;SDS011;40963;52.168;21.296;2023-02-25T11:25:23;5.25;;;2.78;;
55063;SDS011;40963;52.168;21.296;2023-02-25T11:27:59;7.68;;;2.60;;
55063;SDS011;40963;52.168;21.296;2023-02-25T11:30:32;3.33;;;2.25;;
55063;SDS011;40963;52.168;21.296;2023-02-25T11:33:07;6.18;;;2.90;;
55063;SDS011;40963;52.168;21.296;2023-02-25T11:36:10;4.35;;;2.90;;
55063;SDS011;40963;52.168;21.296;2023-02-25T11:38:37;6.32;;;3.25;;
55063;SDS011;40963;52.168;21.296;2023-02-25T11:41:15;5.10;;;3.33;;
55063;SDS011;40963;52.168;21.296;2023-02-25T11:43:46;7.97;;;3.95;;
55063;SDS011;40963;52.168;21.296;2023-02-25T11:46:16;4.90;;;2.75;;
55063;SDS011;40963;52.168;21.296;2023-02-25T11:54:03;5.35;;;3.20;;
55063;SDS011;40963;52.168;21.296;2023-02-25T11:56:34;5.47;;;3.58;;
55063;SDS011;40963;52.168;21.296;2023-02-25T12:35:58;8.93;;;4.00;;
55063;SDS011;40963;52.168;21.296;2023-02-25T12:59:36;10.68;;;5.55;;
55063;SDS011;40963;52.168;21.296;2023-02-25T13:07:56;8.85;;;4.82;;
55063;SDS011;40963;52.168;21.296;2023-02-25T13:18:57;14.15;;;6.03;;
55063;SDS011;40963;52.168;21.296;2023-02-25T13:32:48;5.07;;;2.63;;
55063;SDS011;40963;52.168;21.296;2023-02-25T13:35:54;4.20;;;2.92;;
55063;SDS011;40963;52.168;21.296;2023-02-25T13:55:28;2.87;;;2.43;;
55063;SDS011;40963;52.168;21.296;2023-02-25T14:15:27;4.40;;;2.85;;
55063;SDS011;40963;52.168;21.296;2023-02-25T14:18:19;4.45;;;3.35;;
55063;SDS011;40963;52.168;21.296;2023-02-25T14:26:37;4.43;;;2.40;;
55063;SDS011;40963;52.168;21.296;2023-02-25T14:29:27;4.55;;;2.63;;
55063;SDS011;40963;52.168;21.296;2023-02-25T14:43:26;8.02;;;4.05;;
55063;SDS011;40963;52.168;21.296;2023-02-25T14:46:17;5.68;;;3.55;;
55063;SDS011;40963;52.168;21.296;2023-02-25T14:48:58;5.97;;;3.42;;
55063;SDS011;40963;52.168;21.296;2023-02-25T15:05:10;3.55;;;2.20;;
55063;SDS011;40963;52.168;21.296;2023-02-25T15:14:00;5.75;;;2.80;;
55063;SDS011;40963;52.168;21.296;2023-02-25T15:19:53;6.90;;;3.80;;
55063;SDS011;40963;52.168;21.296;2023-02-25T15:22:42;6.53;;;3.42;;
55063;SDS011;40963;52.168;21.296;2023-02-25T15:27:45;8.32;;;3.55;;
55063;SDS011;40963;52.168;21.296;2023-02-25T15:30:14;5.18;;;2.95;;
55063;SDS011;40963;52.168;21.296;2023-02-25T15:35:19;6.50;;;2.45;;
55063;SDS011;40963;52.168;21.296;2023-02-25T15:42:59;11.43;;;4.57;;
55063;SDS011;40963;52.168;21.296;2023-02-25T15:45:51;10.50;;;4.40;;
55063;SDS011;40963;52.168;21.296;2023-02-25T15:48:37;6.50;;;4.20;;
55063;SDS011;40963;52.168;21.296;2023-02-25T15:51:04;4.88;;;3.15;;
55063;SDS011;40963;52.168;21.296;2023-02-25T16:14:03;7.82;;;5.00;;
55063;SDS011;40963;52.168;21.296;2023-02-25T16:16:48;7.70;;;4.50;;
55063;SDS011;40963;52.168;21.296;2023-02-25T16:19:16;7.03;;;4.03;;
55063;SDS011;40963;52.168;21.296;2023-02-25T16:21:44;9.77;;;5.05;;
55063;SDS011;40963;52.168;21.296;2023-02-25T16:24:13;8.35;;;5.10;;
55063;SDS011;40963;52.168;21.296;2023-02-25T16:26:45;12.20;;;5.80;;
55063;SDS011;40963;52.168;21.296;2023-02-25T16:37:22;14.65;;;6.35;;
55063;SDS011;40963;52.168;21.296;2023-02-25T16:40:01;12.43;;;5.80;;
55063;SDS011;40963;52.168;21.296;2023-02-25T16:42:27;10.95;;;5.78;;
55063;SDS011;40963;52.168;21.296;2023-02-25T16:45:00;15.05;;;6.57;;
55063;SDS011;40963;52.168;21.296;2023-02-25T16:47:30;9.02;;;5.25;;
55063;SDS011;40963;52.168;21.296;2023-02-25T16:50:01;8.23;;;4.85;;
55063;SDS011;40963;52.168;21.296;2023-02-25T16:52:36;10.30;;;5.53;;
55063;SDS011;40963;52.168;21.296;2023-02-25T16:55:05;10.68;;;5.72;;
55063;SDS011;40963;52.168;21.296;2023-02-25T16:57:36;10.30;;;4.90;;
55063;SDS011;40963;52.168;21.296;2023-02-25T17:00:11;10.40;;;4.82;;
55063;SDS011;40963;52.168;21.296;2023-02-25T17:02:48;13.40;;;4.68;;
55063;SDS011;40963;52.168;21.296;2023-02-25T17:05:22;8.73;;;4.45;;
55063;SDS011;40963;52.168;21.296;2023-02-25T17:08:00;9.48;;;3.97;;
55063;SDS011;40963;52.168;21.296;2023-02-25T17:10:33;9.50;;;5.03;;
55063;SDS011;40963;52.168;21.296;2023-02-25T17:13:06;7.38;;;4.38;;
55063;SDS011;40963;52.168;21.296;2023-02-25T17:16:00;12.57;;;6.53;;
55063;SDS011;40963;52.168;21.296;2023-02-25T17:21:18;15.27;;;6.30;;
55063;SDS011;40963;52.168;21.296;2023-02-25T17:23:45;14.40;;;7.20;;
55063;SDS011;40963;52.168;21.296;2023-02-25T17:26:15;8.20;;;4.75;;
55063;SDS011;40963;52.168;21.296;2023-02-25T17:28:43;9.02;;;4.90;;
55063;SDS011;40963;52.168;21.296;2023-02-25T17:31:12;7.13;;;4.68;;
55063;SDS011;40963;52.168;21.296;2023-02-25T17:33:52;9.07;;;4.95;;
55063;SDS011;40963;52.168;21.296;2023-02-25T17:36:28;8.90;;;4.72;;
55063;SDS011;40963;52.168;21.296;2023-02-25T17:39:03;10.05;;;4.63;;
55063;SDS011;40963;52.168;21.296;2023-02-25T17:41:36;9.05;;;4.75;;
55063;SDS011;40963;52.168;21.296;2023-02-25T17:44:07;8.60;;;5.28;;
55063;SDS011;40963;52.168;21.296;2023-02-25T17:46:53;17.35;;;5.05;;
55063;SDS011;40963;52.168;21.296;2023-02-25T17:49:20;9.30;;;5.30;;
55063;SDS011;40963;52.168;21.296;2023-02-25T17:52:16;8.50;;;5.30;;
55063;SDS011;40963;52.168;21.296;2023-02-25T17:54:48;6.32;;;4.05;;
55063;SDS011;40963;52.168;21.296;2023-02-25T17:57:22;13.93;;;5.65;;
55063;SDS011;40963;52.168;21.296;2023-02-25T17:59:51;11.13;;;5.55;;
55063;SDS011;40963;52.168;21.296;2023-02-25T18:07:38;11.25;;;6.05;;
55063;SDS011;40963;52.168;21.296;2023-02-25T18:10:40;12.23;;;6.68;;
55063;SDS011;40963;52.168;21.296;2023-02-25T18:13:01;16.55;;;7.18;;
55063;SDS011;40963;52.168;21.296;2023-02-25T18:15:29;16.80;;;6.93;;
55063;SDS011;40963;52.168;21.296;2023-02-25T18:17:57;17.83;;;7.97;;
55063;SDS011;40963;52.168;21.296;2023-02-25T18:20:35;19.35;;;9.15;;
55063;SDS011;40963;52.168;21.296;2023-02-25T18:25:39;15.05;;;8.30;;
55063;SDS011;40963;52.168;21.296;2023-02-25T18:28:13;19.05;;;8.88;;
55063;SDS011;40963;52.168;21.296;2023-02-25T18:30:41;17.73;;;9.45;;
55063;SDS011;40963;52.168;21.296;2023-02-25T18:33:08;13.40;;;6.60;;
55063;SDS011;40963;52.168;21.296;2023-02-25T18:35:38;17.33;;;7.90;;
55063;SDS011;40963;52.168;21.296;2023-02-25T18:38:05;16.02;;;7.55;;
55063;SDS011;40963;52.168;21.296;2023-02-25T18:40:35;13.18;;;7.18;;
55063;SDS011;40963;52.168;21.296;2023-02-25T18:43:04;13.23;;;6.70;;
55063;SDS011;40963;52.168;21.296;2023-02-25T18:45:30;9.52;;;5.88;;
55063;SDS011;40963;52.168;21.296;2023-02-25T18:47:57;15.48;;;6.85;;
55063;SDS011;40963;52.168;21.296;2023-02-25T18:50:29;10.65;;;6.20;;
55063;SDS011;40963;52.168;21.296;2023-02-25T18:52:56;10.25;;;6.07;;
55063;SDS011;40963;52.168;21.296;2023-02-25T18:55:26;12.65;;;5.78;;
55063;SDS011;40963;52.168;21.296;2023-02-25T18:57:53;11.13;;;5.68;;
55063;SDS011;40963;52.168;21.296;2023-02-25T19:00:20;10.77;;;6.55;;
55063;SDS011;40963;52.168;21.296;2023-02-25T19:02:49;10.85;;;5.78;;
55063;SDS011;40963;52.168;21.296;2023-02-25T19:05:20;11.68;;;6.10;;